LKKU  Kunovice Airport

Add Bookmark

Uherské Hradiště, Czech Republic

Status IATA
Operational UHE
Latitude Longitude
49° 1' 45" N 17° 26' 22" E
49.029400 17.439699
Local (DST + 2) UTC (GMT + 1)
Feb 27, 2015 05:44 Feb 27, 2015 16:44
Sunrise-Sunset Local UTC
Begin Civil Twilight 06:02 05:02
Sunrise 06:34 05:34
Sunset 05:31 16:31
End Civil Twilight 06:03 17:03

Current Weather

METAR Observed MVFR
LKKU 271500Z 16005KT 090V190 9999 FEW021 BKN026 07/03 Q1013 Fri, Feb 27, 2015 @ 15:00 UTC
(1 Hour, 44 Minutes ago)
Marginal Visual Flight Rules
Wind Visibility Clouds Conditions
160° at 5 knots (9 kph) 10 km or more
  • Few at 2,100' AGL
  • Broken at 2,600' AGL
  • No significant weather
Temperatures Readings Precipitation
Current Temp 7°C (45°F)
Dewpoint 3°C (37°F)
Humidity 76%
Altimeter 29.91"Hg
Sea Level Pressure 1013mb
Field Elevation 580.71'
None Recorded

Additional weather within a 92.6km radius of LKKU

Map ICAO Location
LZPP 53.2km S (148°)
LKTB 55.9km W (284°)
LZZI 88.3km E (075°)
LKMT 88.5km N (033°)

24 Hour Weather History

Loading
-

24 Hour Weather Graphs

Loading
-

CheckWX.com is intended as a tool to help pilots better visualize weather data. It is not intended as a substitute for an official weather briefing obtained from a Flight Service Station. CheckWX.com does not meet the FAA requirements for an official pre-flight weather briefing. Therefore, it's important that pilots still call and obtain an official FSS pre-flight weather briefing.